Time;durP1;ratioP1;P1;durP2;ratioP2;P2;SDS_P1;SDS_P2;PMS_P1;PMS_P2;Temp;Humidity;BMP_temperature;BMP_pressure;BME280_temperature;BME280_humidity;BME280_pressure;Samples;Min_cycle;Max_cycle;Signal;HPM_P1;HPM_P2
2023/12/30 00:02:05;;;;;;;6.05;5.85;;;;;;;;;;6165361;28;20038;-89
2023/12/30 00:05:07;;;;;;;7.15;6.85;;;;;;;;;;6162552;28;20051;-88
2023/12/30 00:08:09;;;;;;;4.95;4.85;;;;;;;;;;6163757;28;20305;-88
2023/12/30 00:11:11;;;;;;;5.47;5.28;;;;;;;;;;6164930;28;20058;-88
2023/12/30 00:14:13;;;;;;;6.28;5.90;;;;;;;;;;6167333;28;20045;-88
2023/12/30 00:17:15;;;;;;;5.65;5.45;;;;;;;;;;6160026;28;20753;-88
2023/12/30 00:20:17;;;;;;;5.10;5.00;;;;;;;;;;6148625;28;20035;-88
2023/12/30 00:23:20;;;;;;;5.70;5.50;;;;;;;;;;6156796;28;20090;-88
2023/12/30 00:26:22;;;;;;;5.18;5.07;;;;;;;;;;6164339;28;20134;-88
2023/12/30 00:29:38;;;;;;;4.75;4.65;;;;;;;;;;6163017;28;20073;-88
2023/12/30 00:32:40;;;;;;;5.90;5.70;;;;;;;;;;6151139;28;20458;-88
2023/12/30 00:35:42;;;;;;;5.05;4.95;;;;;;;;;;6153313;28;20051;-88
2023/12/30 00:38:43;;;;;;;5.40;5.20;;;;;;;;;;6163847;28;20043;-89
2023/12/30 00:41:45;;;;;;;4.97;4.88;;;;;;;;;;6163239;28;20050;-88
2023/12/30 00:44:47;;;;;;;5.55;5.35;;;;;;;;;;6157030;28;20054;-89
2023/12/30 00:47:48;;;;;;;4.80;4.70;;;;;;;;;;6159121;28;20051;-88
2023/12/30 00:50:50;;;;;;;6.53;6.32;;;;;;;;;;6147317;28;20262;-89
2023/12/30 00:53:52;;;;;;;5.03;4.93;;;;;;;;;;6146128;28;20082;-89
2023/12/30 00:56:54;;;;;;;5.50;5.30;;;;;;;;;;6163381;28;20051;-89
2023/12/30 00:59:56;;;;;;;5.70;5.50;;;;;;;;;;6160254;28;20042;-89
2023/12/30 01:02:58;;;;;;;5.10;5.00;;;;;;;;;;6164961;28;20178;-88
2023/12/30 01:06:00;;;;;;;4.82;4.72;;;;;;;;;;6159024;28;20054;-89
2023/12/30 01:09:02;;;;;;;5.07;4.88;;;;;;;;;;6163399;28;20045;-89
2023/12/30 01:12:04;;;;;;;5.72;5.53;;;;;;;;;;6165340;28;20047;-89
2023/12/30 01:15:06;;;;;;;5.30;5.10;;;;;;;;;;6160900;28;20553;-90
2023/12/30 01:18:08;;;;;;;7.88;7.47;;;;;;;;;;6157231;28;20055;-90
2023/12/30 01:21:10;;;;;;;5.00;4.90;;;;;;;;;;6155034;28;20027;-89
2023/12/30 01:24:12;;;;;;;4.50;4.40;;;;;;;;;;6160849;28;20079;-90
2023/12/30 01:27:14;;;;;;;4.88;4.78;;;;;;;;;;6158415;28;20039;-90
2023/12/30 01:30:16;;;;;;;5.35;5.15;;;;;;;;;;6161480;28;20658;-89
2023/12/30 01:33:18;;;;;;;4.32;4.22;;;;;;;;;;6167927;28;20035;-91
2023/12/30 01:36:20;;;;;;;5.68;5.47;;;;;;;;;;6162272;28;20046;-91
2023/12/30 01:39:22;;;;;;;4.82;4.72;;;;;;;;;;6162039;28;20445;-90
2023/12/30 01:42:23;;;;;;;4.97;4.88;;;;;;;;;;6157297;28;20071;-90
2023/12/30 01:45:25;;;;;;;4.82;4.72;;;;;;;;;;6162157;28;20051;-91
2023/12/30 01:48:33;;;;;;;4.32;4.22;;;;;;;;;;6164942;28;20043;-90
2023/12/30 01:51:35;;;;;;;5.30;5.10;;;;;;;;;;6158500;28;20508;-90
2023/12/30 01:54:37;;;;;;;5.55;5.35;;;;;;;;;;6156911;28;20541;-91
2023/12/30 01:57:39;;;;;;;4.50;4.40;;;;;;;;;;6179133;28;20490;-91
2023/12/30 02:00:42;;;;;;;7.53;5.32;;;;;;;;;;6154128;28;20910;-91
2023/12/30 02:03:44;;;;;;;4.65;4.55;;;;;;;;;;6163710;28;20073;-91
2023/12/30 02:06:46;;;;;;;4.60;4.50;;;;;;;;;;6162382;28;20153;-91
2023/12/30 02:09:49;;;;;;;4.90;4.80;;;;;;;;;;6145588;28;20753;-91
2023/12/30 02:12:50;;;;;;;4.63;4.53;;;;;;;;;;6156298;28;20133;-91
2023/12/30 02:15:52;;;;;;;4.75;4.65;;;;;;;;;;6157717;28;20178;-91
2023/12/30 02:18:54;;;;;;;4.60;4.50;;;;;;;;;;6166298;28;20539;-92
2023/12/30 02:21:56;;;;;;;5.57;5.28;;;;;;;;;;6163771;28;20346;-91
2023/12/30 02:25:00;;;;;;;4.72;4.63;;;;;;;;;;6156988;28;20112;-91
2023/12/30 02:28:02;;;;;;;5.10;4.95;;;;;;;;;;6161484;28;20069;-92
2023/12/30 02:31:04;;;;;;;5.55;5.35;;;;;;;;;;6168051;28;20531;-91
2023/12/30 02:34:06;;;;;;;4.95;4.85;;;;;;;;;;6166372;28;20053;-91
2023/12/30 02:37:08;;;;;;;5.00;4.80;;;;;;;;;;6146355;28;20141;-91
2023/12/30 02:40:10;;;;;;;5.38;5.18;;;;;;;;;;6164415;28;20110;-91
2023/12/30 02:43:13;;;;;;;5.03;4.90;;;;;;;;;;6159112;28;20046;-92
2023/12/30 02:46:15;;;;;;;5.20;5.00;;;;;;;;;;6157983;28;20050;-91
2023/12/30 02:49:16;;;;;;;5.38;5.18;;;;;;;;;;6161107;28;20053;-91
2023/12/30 02:52:19;;;;;;;5.25;5.05;;;;;;;;;;6167204;28;20042;-91
2023/12/30 02:55:20;;;;;;;6.25;5.85;;;;;;;;;;6165880;28;20194;-92
2023/12/30 02:58:22;;;;;;;8.55;4.97;;;;;;;;;;6162261;28;20539;-91
2023/12/30 03:01:25;;;;;;;5.57;5.38;;;;;;;;;;6163627;28;20481;-92
2023/12/30 03:04:27;;;;;;;5.43;5.22;;;;;;;;;;6163357;28;20062;-92
2023/12/30 03:07:29;;;;;;;5.20;5.07;;;;;;;;;;6145252;28;20484;-92
2023/12/30 03:10:31;;;;;;;5.60;5.35;;;;;;;;;;6167008;28;20047;-91
2023/12/30 03:13:33;;;;;;;5.13;4.93;;;;;;;;;;6156557;28;20784;-91
2023/12/30 03:16:35;;;;;;;5.72;5.20;;;;;;;;;;6166312;28;20051;-92
2023/12/30 03:19:37;;;;;;;4.78;4.68;;;;;;;;;;6144801;28;20517;-92
2023/12/30 03:22:39;;;;;;;5.22;5.03;;;;;;;;;;6166065;28;20113;-90
2023/12/30 03:25:41;;;;;;;4.82;4.72;;;;;;;;;;6161591;28;20055;-91
2023/12/30 03:28:43;;;;;;;5.07;4.90;;;;;;;;;;6165514;28;20146;-92
2023/12/30 03:31:45;;;;;;;4.88;4.78;;;;;;;;;;6157696;28;20047;-92
2023/12/30 03:34:47;;;;;;;4.45;4.35;;;;;;;;;;6161452;28;20046;-91
2023/12/30 03:37:49;;;;;;;6.32;5.80;;;;;;;;;;6158293;28;20051;-92
2023/12/30 03:40:51;;;;;;;4.80;4.63;;;;;;;;;;6158758;28;20055;-92
2023/12/30 03:43:54;;;;;;;6.65;6.45;;;;;;;;;;6163623;28;20043;-89
2023/12/30 03:46:56;;;;;;;5.00;4.90;;;;;;;;;;6139158;28;20098;-91
2023/12/30 03:49:57;;;;;;;5.43;5.22;;;;;;;;;;6158436;28;20047;-92
2023/12/30 03:52:59;;;;;;;5.35;5.15;;;;;;;;;;6164086;28;20137;-91
2023/12/30 03:56:01;;;;;;;5.45;5.25;;;;;;;;;;6141838;28;20133;-92
2023/12/30 03:59:02;;;;;;;5.38;5.22;;;;;;;;;;6165502;28;20049;-91
2023/12/30 04:02:04;;;;;;;4.53;4.43;;;;;;;;;;6162217;28;20046;-91
2023/12/30 04:05:06;;;;;;;4.85;4.75;;;;;;;;;;6163907;28;20047;-91
2023/12/30 04:08:09;;;;;;;5.47;5.28;;;;;;;;;;6161616;28;20080;-92
2023/12/30 04:11:10;;;;;;;5.13;4.90;;;;;;;;;;6161258;28;20186;-91
2023/12/30 04:14:12;;;;;;;5.22;5.03;;;;;;;;;;6158340;28;20058;-93
2023/12/30 04:17:14;;;;;;;10.68;5.30;;;;;;;;;;6154146;28;20082;-92
2023/12/30 04:20:16;;;;;;;4.63;4.53;;;;;;;;;;6162475;28;20437;-91
2023/12/30 04:23:18;;;;;;;4.72;4.63;;;;;;;;;;6168521;28;20054;-90
2023/12/30 04:26:20;;;;;;;5.45;5.25;;;;;;;;;;6162880;28;20047;-90
2023/12/30 04:29:22;;;;;;;5.72;5.32;;;;;;;;;;6163231;28;20042;-91
2023/12/30 04:32:30;;;;;;;4.88;4.78;;;;;;;;;;6145403;28;20425;-91
2023/12/30 04:35:32;;;;;;;5.40;5.20;;;;;;;;;;6159122;28;20046;-91
2023/12/30 04:38:35;;;;;;;5.20;5.00;;;;;;;;;;6156747;28;20042;-92
2023/12/30 04:41:37;;;;;;;5.18;4.97;;;;;;;;;;6174922;28;20433;-91
2023/12/30 04:44:38;;;;;;;5.03;4.93;;;;;;;;;;6156943;28;20047;-92
2023/12/30 04:47:41;;;;;;;5.28;5.07;;;;;;;;;;6157475;28;20502;-91
2023/12/30 04:50:43;;;;;;;5.20;4.82;;;;;;;;;;6164103;28;20501;-91
2023/12/30 04:53:45;;;;;;;4.93;4.82;;;;;;;;;;6141182;28;20066;-91
2023/12/30 04:56:46;;;;;;;4.93;4.82;;;;;;;;;;6146359;28;20796;-91
2023/12/30 04:59:49;;;;;;;4.90;4.80;;;;;;;;;;6164062;28;20050;-91
2023/12/30 05:02:51;;;;;;;4.75;4.65;;;;;;;;;;6164569;28;20061;-91
2023/12/30 05:05:52;;;;;;;5.70;5.25;;;;;;;;;;6164275;28;20129;-91
2023/12/30 05:08:55;;;;;;;6.57;6.28;;;;;;;;;;6163281;28;20046;-91
2023/12/30 05:11:57;;;;;;;5.40;5.20;;;;;;;;;;6164205;28;20401;-91
2023/12/30 05:14:59;;;;;;;5.07;4.97;;;;;;;;;;6153144;28;20541;-90
2023/12/30 05:18:01;;;;;;;4.88;4.78;;;;;;;;;;6162135;28;20054;-90
2023/12/30 05:21:02;;;;;;;5.57;5.38;;;;;;;;;;6161234;28;20051;-91
2023/12/30 05:24:05;;;;;;;5.25;4.95;;;;;;;;;;6162466;28;20564;-90
2023/12/30 05:27:06;;;;;;;5.70;5.43;;;;;;;;;;6159634;28;20046;-92
2023/12/30 05:30:08;;;;;;;6.00;5.72;;;;;;;;;;6158987;28;20039;-90
2023/12/30 05:33:11;;;;;;;5.85;5.55;;;;;;;;;;6161524;28;20488;-90
2023/12/30 05:36:13;;;;;;;5.10;5.00;;;;;;;;;;6156949;28;20413;-92
2023/12/30 05:39:14;;;;;;;4.93;4.78;;;;;;;;;;6158295;28;20465;-92
2023/12/30 05:42:16;;;;;;;5.45;5.25;;;;;;;;;;6160534;28;20687;-91
2023/12/30 05:45:18;;;;;;;5.00;4.90;;;;;;;;;;6164143;28;20055;-92
2023/12/30 05:48:20;;;;;;;5.03;4.82;;;;;;;;;;6160060;28;20047;-90
2023/12/30 05:51:22;;;;;;;5.43;5.22;;;;;;;;;;6162478;28;20054;-92
2023/12/30 05:54:26;;;;;;;5.00;4.80;;;;;;;;;;6183495;28;20051;-91
2023/12/30 05:57:28;;;;;;;5.88;5.57;;;;;;;;;;6168022;28;20058;-92
2023/12/30 06:00:31;;;;;;;5.22;5.03;;;;;;;;;;6168821;28;20118;-91
2023/12/30 06:03:35;;;;;;;4.88;4.78;;;;;;;;;;6167124;28;20051;-91
2023/12/30 06:06:41;;;;;;;5.63;5.43;;;;;;;;;;6156759;28;20050;-90
2023/12/30 06:09:44;;;;;;;5.22;5.03;;;;;;;;;;6164825;28;20039;-91
2023/12/30 06:12:45;;;;;;;5.78;5.38;;;;;;;;;;6165528;28;20432;-91
2023/12/30 06:15:50;;;;;;;5.53;5.32;;;;;;;;;;6164387;28;20186;-90
2023/12/30 06:18:51;;;;;;;5.00;4.80;;;;;;;;;;6184164;28;20137;-91
2023/12/30 06:21:53;;;;;;;5.75;5.55;;;;;;;;;;6173443;28;20467;-91
2023/12/30 06:24:55;;;;;;;5.38;5.07;;;;;;;;;;6162187;28;20527;-91
2023/12/30 06:27:57;;;;;;;5.82;5.57;;;;;;;;;;6161095;28;20043;-91
2023/12/30 06:30:59;;;;;;;6.22;5.70;;;;;;;;;;6160887;28;20152;-91
2023/12/30 06:34:01;;;;;;;5.47;5.18;;;;;;;;;;6163767;28;20669;-90
2023/12/30 06:37:03;;;;;;;5.15;4.95;;;;;;;;;;6159591;28;20039;-91
2023/12/30 06:40:05;;;;;;;6.18;5.97;;;;;;;;;;6164325;28;20532;-90
2023/12/30 06:43:06;;;;;;;5.05;4.95;;;;;;;;;;6176052;28;20217;-90
2023/12/30 06:46:08;;;;;;;6.57;6.30;;;;;;;;;;6167441;28;20051;-91
2023/12/30 06:49:10;;;;;;;5.05;4.93;;;;;;;;;;6163665;28;20814;-90
2023/12/30 06:52:12;;;;;;;5.30;5.07;;;;;;;;;;6168780;28;20054;-91
2023/12/30 06:55:14;;;;;;;5.50;5.30;;;;;;;;;;6165526;28;20093;-91
2023/12/30 06:58:27;;;;;;;5.53;5.13;;;;;;;;;;6166257;28;20178;-91
2023/12/30 07:01:29;;;;;;;5.82;5.63;;;;;;;;;;6161671;28;20512;-90
2023/12/30 07:04:31;;;;;;;6.18;5.97;;;;;;;;;;6163998;28;20091;-91
2023/12/30 07:07:33;;;;;;;6.32;6.03;;;;;;;;;;6165414;28;20049;-91
2023/12/30 07:10:35;;;;;;;4.82;4.72;;;;;;;;;;6165067;28;20046;-91
2023/12/30 07:13:37;;;;;;;5.50;5.30;;;;;;;;;;6164486;28;20690;-91
2023/12/30 07:16:40;;;;;;;5.10;4.97;;;;;;;;;;6166303;28;20121;-91
2023/12/30 07:19:41;;;;;;;5.72;5.43;;;;;;;;;;6153111;28;20133;-91
2023/12/30 07:22:43;;;;;;;5.57;5.38;;;;;;;;;;6162006;28;20521;-92
2023/12/30 07:25:47;;;;;;;6.63;6.18;;;;;;;;;;6163722;28;20723;-90
2023/12/30 07:28:49;;;;;;;4.90;4.80;;;;;;;;;;6166057;28;20319;-90
2023/12/30 07:31:51;;;;;;;5.78;5.57;;;;;;;;;;6158725;28;20057;-90
2023/12/30 07:34:52;;;;;;;5.43;5.22;;;;;;;;;;6156234;28;20054;-91
2023/12/30 07:37:54;;;;;;;5.57;5.38;;;;;;;;;;6157335;28;20039;-92
2023/12/30 07:40:56;;;;;;;5.50;5.30;;;;;;;;;;6161753;28;20066;-90
2023/12/30 07:43:58;;;;;;;7.03;6.72;;;;;;;;;;6158769;28;20120;-89
2023/12/30 07:47:00;;;;;;;6.13;5.72;;;;;;;;;;6161220;28;20078;-91
2023/12/30 07:50:02;;;;;;;5.47;5.28;;;;;;;;;;6167802;28;20057;-90
2023/12/30 07:53:04;;;;;;;6.15;5.95;;;;;;;;;;6153710;28;20051;-89
2023/12/30 07:56:06;;;;;;;5.53;5.32;;;;;;;;;;6165269;28;20054;-90
2023/12/30 07:59:08;;;;;;;5.20;5.00;;;;;;;;;;6157025;28;20035;-90
2023/12/30 08:02:09;;;;;;;6.63;6.22;;;;;;;;;;6165603;28;20529;-91
2023/12/30 08:05:11;;;;;;;5.72;5.53;;;;;;;;;;6165802;28;20553;-90
2023/12/30 08:08:13;;;;;;;6.13;5.82;;;;;;;;;;6165116;28;20041;-91
2023/12/30 08:11:15;;;;;;;5.95;5.75;;;;;;;;;;6163500;28;20043;-91
2023/12/30 08:14:17;;;;;;;6.07;5.88;;;;;;;;;;6159999;28;20062;-90
2023/12/30 08:17:19;;;;;;;5.78;5.57;;;;;;;;;;6153027;28;20620;-91
2023/12/30 08:20:21;;;;;;;5.78;5.40;;;;;;;;;;6161370;28;20212;-89
2023/12/30 08:23:23;;;;;;;5.78;5.47;;;;;;;;;;6163017;28;20051;-90
2023/12/30 08:26:24;;;;;;;6.03;5.72;;;;;;;;;;6159435;28;20059;-91
2023/12/30 08:29:27;;;;;;;7.70;6.82;;;;;;;;;;6156366;28;20046;-91
2023/12/30 08:32:28;;;;;;;5.85;5.55;;;;;;;;;;6160487;28;20035;-90
2023/12/30 08:35:30;;;;;;;5.53;5.32;;;;;;;;;;6157014;28;20125;-90
2023/12/30 08:38:32;;;;;;;5.85;5.55;;;;;;;;;;6160532;28;20062;-92
2023/12/30 08:41:34;;;;;;;5.13;4.93;;;;;;;;;;6151494;28;20047;-90
2023/12/30 08:44:40;;;;;;;4.75;4.65;;;;;;;;;;6158654;28;20173;-91
2023/12/30 08:47:42;;;;;;;5.95;5.47;;;;;;;;;;6158125;28;20055;-90
2023/12/30 08:50:44;;;;;;;6.65;5.75;;;;;;;;;;6158422;28;20039;-91
2023/12/30 08:53:46;;;;;;;5.78;5.53;;;;;;;;;;6162878;28;20043;-92
2023/12/30 08:56:50;;;;;;;11.43;5.30;;;;;;;;;;6160099;28;20039;-91
2023/12/30 08:59:52;;;;;;;5.38;5.18;;;;;;;;;;6153187;28;20051;-90
2023/12/30 09:02:55;;;;;;;5.10;4.90;;;;;;;;;;6153313;28;20452;-91
2023/12/30 09:05:57;;;;;;;5.43;5.22;;;;;;;;;;6162066;28;20055;-91
2023/12/30 09:08:59;;;;;;;4.70;4.60;;;;;;;;;;6155421;28;20047;-90
2023/12/30 09:12:01;;;;;;;5.18;4.88;;;;;;;;;;6159319;28;20043;-90
2023/12/30 09:15:02;;;;;;;5.00;4.90;;;;;;;;;;6160952;28;20043;-90
2023/12/30 09:18:04;;;;;;;8.25;6.07;;;;;;;;;;6145243;28;20112;-91
2023/12/30 09:21:06;;;;;;;6.43;5.72;;;;;;;;;;6160228;28;20202;-94
2023/12/30 09:24:08;;;;;;;5.30;5.10;;;;;;;;;;6161182;28;20039;-90
2023/12/30 09:27:10;;;;;;;6.03;5.68;;;;;;;;;;6157933;28;20047;-91
2023/12/30 09:30:12;;;;;;;5.40;5.20;;;;;;;;;;6163955;28;20062;-91
2023/12/30 09:33:13;;;;;;;4.93;4.82;;;;;;;;;;6159789;28;20054;-91
2023/12/30 09:36:17;;;;;;;6.50;6.13;;;;;;;;;;6161800;28;20129;-91
2023/12/30 09:39:19;;;;;;;5.78;5.57;;;;;;;;;;6162050;28;20042;-91
2023/12/30 09:42:20;;;;;;;5.57;5.38;;;;;;;;;;6162024;28;20042;-91
2023/12/30 09:45:22;;;;;;;8.05;7.57;;;;;;;;;;6151775;28;20863;-90
2023/12/30 09:48:25;;;;;;;22.17;6.07;;;;;;;;;;6156568;28;20043;-90
2023/12/30 09:51:27;;;;;;;5.18;5.00;;;;;;;;;;6160436;28;20043;-91
2023/12/30 09:54:29;;;;;;;5.85;5.65;;;;;;;;;;6163824;28;20142;-90
2023/12/30 09:57:46;;;;;;;16.40;5.55;;;;;;;;;;6152693;28;20107;-91
2023/12/30 10:00:48;;;;;;;5.85;5.55;;;;;;;;;;6151985;28;20109;-91
2023/12/30 10:03:50;;;;;;;4.55;4.45;;;;;;;;;;6155697;28;20047;-91
2023/12/30 10:06:54;;;;;;;6.60;6.20;;;;;;;;;;6159761;28;20146;-91
2023/12/30 10:09:55;;;;;;;5.57;5.28;;;;;;;;;;6158476;28;20133;-91
2023/12/30 10:12:58;;;;;;;6.18;5.88;;;;;;;;;;6163335;28;20249;-91
2023/12/30 10:16:05;;;;;;;7.15;6.65;;;;;;;;;;6157697;28;20142;-91
2023/12/30 10:19:10;;;;;;;5.65;5.45;;;;;;;;;;6167265;28;20089;-90
2023/12/30 10:22:12;;;;;;;4.20;4.10;;;;;;;;;;6158119;28;20492;-90
2023/12/30 10:25:14;;;;;;;5.75;5.55;;;;;;;;;;6154158;28;20043;-92
2023/12/30 10:28:16;;;;;;;5.50;5.30;;;;;;;;;;6162125;28;20505;-91
2023/12/30 10:31:18;;;;;;;23.08;10.93;;;;;;;;;;6154661;28;20054;-92
2023/12/30 10:34:20;;;;;;;5.13;4.93;;;;;;;;;;6156752;28;20043;-91
2023/12/30 10:37:22;;;;;;;5.63;5.43;;;;;;;;;;6156874;28;20070;-91
2023/12/30 10:40:25;;;;;;;5.68;5.47;;;;;;;;;;6144354;28;20425;-91
2023/12/30 10:43:27;;;;;;;6.18;5.88;;;;;;;;;;6158509;28;20049;-91
2023/12/30 10:46:31;;;;;;;5.75;5.38;;;;;;;;;;6154568;28;20056;-91
2023/12/30 10:49:33;;;;;;;5.45;5.13;;;;;;;;;;6169694;28;20153;-91
2023/12/30 10:52:36;;;;;;;6.53;5.60;;;;;;;;;;6161725;28;20515;-91
2023/12/30 10:55:39;;;;;;;5.80;5.55;;;;;;;;;;6163557;28;20073;-92
2023/12/30 10:58:43;;;;;;;5.45;5.03;;;;;;;;;;6154753;28;20077;-92
2023/12/30 11:01:45;;;;;;;5.70;5.40;;;;;;;;;;6160718;28;20093;-90
2023/12/30 11:04:48;;;;;;;6.30;6.10;;;;;;;;;;6159306;28;20050;-91
2023/12/30 11:07:52;;;;;;;6.32;6.00;;;;;;;;;;6159497;28;20073;-88
2023/12/30 11:10:56;;;;;;;7.32;6.40;;;;;;;;;;6154778;28;20513;-90
2023/12/30 11:13:58;;;;;;;5.70;5.50;;;;;;;;;;6163221;28;20225;-89
2023/12/30 11:17:04;;;;;;;5.82;5.22;;;;;;;;;;6152974;28;20433;-90
2023/12/30 11:20:24;;;;;;;6.00;5.80;;;;;;;;;;6160195;28;20408;-90
2023/12/30 11:23:27;;;;;;;6.15;5.95;;;;;;;;;;6161466;28;20047;-90
2023/12/30 11:26:29;;;;;;;4.85;4.70;;;;;;;;;;6160836;28;20054;-91
2023/12/30 11:29:30;;;;;;;5.10;4.90;;;;;;;;;;6163623;28;20042;-92
2023/12/30 11:32:32;;;;;;;5.88;5.53;;;;;;;;;;6160521;28;20363;-91
2023/12/30 11:35:34;;;;;;;5.15;5.00;;;;;;;;;;6160383;28;20121;-91
2023/12/30 11:38:37;;;;;;;14.00;5.55;;;;;;;;;;6159358;28;20197;-92
2023/12/30 11:41:39;;;;;;;5.18;5.00;;;;;;;;;;6164561;28;20100;-92
2023/12/30 11:44:43;;;;;;;5.15;4.95;;;;;;;;;;6159610;28;20043;-91
2023/12/30 11:47:46;;;;;;;5.20;5.00;;;;;;;;;;6153040;28;20045;-92
2023/12/30 11:50:54;;;;;;;4.47;4.38;;;;;;;;;;6164248;28;20504;-92
2023/12/30 11:53:56;;;;;;;5.82;5.53;;;;;;;;;;6156674;28;20079;-91
2023/12/30 11:56:58;;;;;;;4.53;4.43;;;;;;;;;;6161576;28;20169;-91
2023/12/30 11:59:59;;;;;;;6.63;6.22;;;;;;;;;;6160637;28;20328;-91
2023/12/30 12:03:01;;;;;;;5.18;4.97;;;;;;;;;;6157103;28;20198;-91
2023/12/30 12:06:03;;;;;;;5.60;5.40;;;;;;;;;;6160787;28;20054;-92
2023/12/30 12:09:05;;;;;;;5.00;4.80;;;;;;;;;;6161329;28;20045;-91
2023/12/30 12:12:07;;;;;;;17.95;5.38;;;;;;;;;;6161722;28;20115;-92
2023/12/30 12:15:10;;;;;;;4.57;4.47;;;;;;;;;;6153305;28;20047;-92
2023/12/30 12:18:12;;;;;;;10.48;5.35;;;;;;;;;;6145189;28;20631;-90
2023/12/30 12:21:14;;;;;;;5.25;5.05;;;;;;;;;;6160301;28;20453;-92
2023/12/30 12:24:15;;;;;;;6.70;6.35;;;;;;;;;;6156855;28;20422;-91
2023/12/30 12:27:18;;;;;;;6.03;5.82;;;;;;;;;;6165211;28;20050;-93
2023/12/30 12:30:20;;;;;;;5.30;5.07;;;;;;;;;;6144794;28;20508;-91
2023/12/30 12:33:22;;;;;;;4.93;4.72;;;;;;;;;;6159389;28;20042;-92
2023/12/30 12:36:24;;;;;;;4.97;4.88;;;;;;;;;;6154928;28;20170;-95
2023/12/30 12:39:26;;;;;;;4.47;4.38;;;;;;;;;;6162439;28;20047;-92
2023/12/30 12:42:28;;;;;;;5.80;5.50;;;;;;;;;;6146825;28;20051;-91
2023/12/30 12:45:32;;;;;;;5.82;5.43;;;;;;;;;;6156582;28;20620;-92
2023/12/30 12:48:34;;;;;;;5.32;5.13;;;;;;;;;;6153440;28;20055;-91
2023/12/30 12:51:38;;;;;;;5.00;4.80;;;;;;;;;;6161559;28;20051;-92
2023/12/30 12:54:41;;;;;;;5.55;5.35;;;;;;;;;;6160345;28;20058;-92
2023/12/30 12:57:42;;;;;;;5.53;5.32;;;;;;;;;;6158398;28;20093;-92
2023/12/30 13:00:44;;;;;;;4.65;4.55;;;;;;;;;;6159339;28;20134;-92
2023/12/30 13:03:45;;;;;;;9.55;5.03;;;;;;;;;;6161347;28;20043;-92
2023/12/30 13:06:47;;;;;;;4.90;4.80;;;;;;;;;;6165170;28;20062;-91
2023/12/30 13:09:59;;;;;;;4.60;4.50;;;;;;;;;;6155656;28;20054;-91
2023/12/30 13:13:01;;;;;;;5.03;4.82;;;;;;;;;;6151657;28;20047;-92
2023/12/30 13:16:04;;;;;;;5.20;5.03;;;;;;;;;;6158100;28;20360;-93
2023/12/30 13:19:05;;;;;;;4.88;4.72;;;;;;;;;;6163005;28;20042;-92
2023/12/30 13:22:08;;;;;;;4.80;4.65;;;;;;;;;;6155579;28;20046;-93
2023/12/30 13:25:10;;;;;;;5.07;4.93;;;;;;;;;;6160452;28;20046;-91
2023/12/30 13:28:11;;;;;;;4.95;4.75;;;;;;;;;;6162461;28;20046;-92
2023/12/30 13:31:17;;;;;;;5.63;5.43;;;;;;;;;;6160120;28;20047;-92
2023/12/30 13:34:19;;;;;;;5.22;5.07;;;;;;;;;;6159370;28;20043;-93
2023/12/30 13:37:22;;;;;;;5.30;5.10;;;;;;;;;;6153733;28;20193;-92
2023/12/30 13:40:25;;;;;;;5.57;5.38;;;;;;;;;;6151194;28;20175;-93
2023/12/30 13:43:27;;;;;;;5.35;5.15;;;;;;;;;;6159990;28;20547;-93
2023/12/30 13:49:59;;;;;;;5.78;5.43;;;;;;;;;;6155645;28;20413;-91
2023/12/30 13:53:02;;;;;;;5.88;5.30;;;;;;;;;;6160484;28;20127;-93
2023/12/30 13:56:06;;;;;;;5.07;4.97;;;;;;;;;;6158458;28;20398;-92
2023/12/30 13:59:09;;;;;;;4.40;4.30;;;;;;;;;;6155955;28;20043;-93
2023/12/30 14:02:12;;;;;;;5.45;5.25;;;;;;;;;;6155040;28;20116;-91
2023/12/30 14:05:29;;;;;;;5.15;4.95;;;;;;;;;;6166765;28;20314;-91
2023/12/30 14:08:42;;;;;;;5.35;5.15;;;;;;;;;;6170050;28;20523;-92
2023/12/30 14:11:49;;;;;;;4.53;4.32;;;;;;;;;;6157011;28;20042;-93
2023/12/30 14:15:05;;;;;;;5.85;5.65;;;;;;;;;;6157912;28;20488;-93
2023/12/30 14:18:23;;;;;;;6.82;6.20;;;;;;;;;;6166049;28;20041;-93
2023/12/30 14:21:26;;;;;;;5.15;4.95;;;;;;;;;;6166999;28;20051;-94
2023/12/30 14:24:28;;;;;;;5.03;4.82;;;;;;;;;;6159183;28;20050;-93
2023/12/30 14:27:31;;;;;;;5.68;5.47;;;;;;;;;;6163558;28;20150;-92
2023/12/30 14:30:36;;;;;;;4.43;4.22;;;;;;;;;;6153673;28;20615;-94
2023/12/30 14:33:38;;;;;;;6.15;5.95;;;;;;;;;;6149284;28;20054;-94
2023/12/30 14:36:40;;;;;;;5.20;5.00;;;;;;;;;;6155317;28;20145;-93
2023/12/30 14:39:42;;;;;;;14.80;5.38;;;;;;;;;;6160576;28;20035;-93
2023/12/30 14:42:44;;;;;;;5.40;5.20;;;;;;;;;;6161723;28;20066;-93
2023/12/30 14:45:47;;;;;;;3.95;3.85;;;;;;;;;;6169139;28;20615;-93
2023/12/30 14:48:49;;;;;;;5.25;4.93;;;;;;;;;;6164246;28;20059;-92
2023/12/30 14:51:51;;;;;;;4.22;4.13;;;;;;;;;;6171969;28;20054;-93
2023/12/30 14:54:53;;;;;;;5.65;5.35;;;;;;;;;;6165041;28;20481;-92
2023/12/30 14:58:04;;;;;;;4.65;4.55;;;;;;;;;;6167268;28;20103;-92
2023/12/30 15:01:07;;;;;;;6.47;6.28;;;;;;;;;;6161499;28;20544;-92
2023/12/30 15:04:10;;;;;;;5.68;5.47;;;;;;;;;;6166670;28;20505;-92
2023/12/30 15:07:12;;;;;;;5.03;4.82;;;;;;;;;;6159432;28;20166;-93
2023/12/30 15:10:14;;;;;;;5.53;5.32;;;;;;;;;;6166086;28;20050;-93
2023/12/30 15:13:17;;;;;;;21.40;6.80;;;;;;;;;;6156014;28;20377;-92
2023/12/30 15:16:19;;;;;;;6.25;5.88;;;;;;;;;;6155335;28;20517;-93
2023/12/30 15:19:21;;;;;;;6.82;6.53;;;;;;;;;;6143345;28;20659;-93
2023/12/30 15:22:26;;;;;;;5.80;4.78;;;;;;;;;;6155933;28;20055;-93
2023/12/30 15:25:28;;;;;;;5.45;5.25;;;;;;;;;;6158409;28;20043;-94
2023/12/30 15:28:30;;;;;;;5.80;5.60;;;;;;;;;;6156308;28;20062;-94
2023/12/30 15:31:32;;;;;;;5.97;5.40;;;;;;;;;;6154564;28;20051;-92
2023/12/30 15:34:38;;;;;;;5.28;5.07;;;;;;;;;;6168356;28;20055;-94
2023/12/30 15:37:43;;;;;;;4.93;4.72;;;;;;;;;;6166916;28;20137;-94
2023/12/30 15:40:46;;;;;;;5.95;5.65;;;;;;;;;;6173769;28;20047;-93
2023/12/30 15:43:48;;;;;;;4.95;4.85;;;;;;;;;;6158968;28;20066;-94
2023/12/30 15:46:50;;;;;;;5.80;5.60;;;;;;;;;;6177012;28;20047;-94
2023/12/30 15:49:52;;;;;;;5.50;5.30;;;;;;;;;;6151719;28;20054;-94
2023/12/30 15:52:54;;;;;;;5.88;5.68;;;;;;;;;;6172237;28;20413;-94
2023/12/30 15:55:56;;;;;;;4.80;4.60;;;;;;;;;;6172901;28;20054;-94
2023/12/30 15:58:58;;;;;;;6.20;5.72;;;;;;;;;;6168275;28;20054;-94
2023/12/30 16:02:00;;;;;;;5.07;4.97;;;;;;;;;;6165107;28;20039;-94
2023/12/30 16:05:02;;;;;;;7.72;6.20;;;;;;;;;;6168042;28;20152;-95
2023/12/30 16:08:04;;;;;;;5.63;5.43;;;;;;;;;;6177322;28;20078;-94
2023/12/30 16:11:06;;;;;;;5.20;5.00;;;;;;;;;;6165252;28;20046;-95
2023/12/30 16:14:10;;;;;;;5.53;5.22;;;;;;;;;;6168470;28;20577;-95
2023/12/30 16:17:12;;;;;;;6.05;5.80;;;;;;;;;;6159326;28;20045;-94
2023/12/30 16:20:14;;;;;;;5.28;5.03;;;;;;;;;;6153211;28;20505;-95
2023/12/30 16:23:16;;;;;;;5.95;5.65;;;;;;;;;;6157169;28;20545;-95
2023/12/30 16:26:19;;;;;;;5.35;5.15;;;;;;;;;;6154605;28;20052;-94
2023/12/30 16:29:22;;;;;;;5.95;5.60;;;;;;;;;;6165807;28;20095;-94
2023/12/30 16:32:24;;;;;;;4.90;4.78;;;;;;;;;;6157230;28;20547;-94
2023/12/30 16:35:26;;;;;;;5.45;5.25;;;;;;;;;;6166648;28;20051;-95
2023/12/30 16:38:27;;;;;;;5.57;5.30;;;;;;;;;;6162224;28;20049;-95
2023/12/30 16:41:30;;;;;;;6.45;6.03;;;;;;;;;;6167266;28;20608;-95
2023/12/30 16:44:32;;;;;;;7.97;6.90;;;;;;;;;;6165673;28;20540;-94
2023/12/30 16:47:36;;;;;;;5.25;5.05;;;;;;;;;;6168428;28;20141;-95
2023/12/30 16:50:38;;;;;;;6.28;5.75;;;;;;;;;;6159355;28;20047;-95
2023/12/30 16:53:41;;;;;;;5.95;5.68;;;;;;;;;;6164801;28;20069;-95
2023/12/30 16:56:43;;;;;;;5.13;4.88;;;;;;;;;;6165431;28;20035;-94
2023/12/30 16:59:47;;;;;;;4.70;4.60;;;;;;;;;;6162603;28;20070;-93
2023/12/30 17:02:50;;;;;;;5.47;5.28;;;;;;;;;;6162277;28;20106;-94
2023/12/30 17:05:52;;;;;;;5.28;5.07;;;;;;;;;;6154874;28;20185;-94
2023/12/30 17:08:54;;;;;;;5.75;5.55;;;;;;;;;;6158520;28;20043;-94
2023/12/30 17:11:56;;;;;;;6.25;6.05;;;;;;;;;;6158256;28;20070;-94
2023/12/30 17:14:59;;;;;;;5.95;5.15;;;;;;;;;;6164321;28;20374;-94
2023/12/30 17:18:01;;;;;;;6.45;6.15;;;;;;;;;;6152099;28;20035;-94
2023/12/30 17:21:03;;;;;;;5.30;5.00;;;;;;;;;;6148972;28;20035;-94
2023/12/30 17:24:05;;;;;;;5.68;5.47;;;;;;;;;;6151007;28;20211;-92
2023/12/30 17:27:07;;;;;;;5.53;5.32;;;;;;;;;;6156303;28;20057;-93
2023/12/30 17:30:10;;;;;;;5.28;5.10;;;;;;;;;;6136690;28;20294;-94
2023/12/30 17:33:13;;;;;;;6.70;6.10;;;;;;;;;;6163113;28;20046;-94
2023/12/30 17:36:16;;;;;;;5.05;4.85;;;;;;;;;;6164497;28;20065;-94
2023/12/30 17:39:18;;;;;;;4.97;4.80;;;;;;;;;;6168035;28;20121;-94
2023/12/30 17:42:20;;;;;;;4.88;4.75;;;;;;;;;;6160123;28;20046;-94
2023/12/30 17:45:22;;;;;;;5.25;5.05;;;;;;;;;;6155531;28;20043;-95
2023/12/30 17:48:24;;;;;;;5.88;5.68;;;;;;;;;;6156391;28;20042;-95
2023/12/30 17:51:27;;;;;;;6.53;6.32;;;;;;;;;;6157273;28;20404;-95
2023/12/30 17:54:29;;;;;;;4.97;4.80;;;;;;;;;;6150793;28;20529;-95
2023/12/30 17:57:31;;;;;;;6.25;5.82;;;;;;;;;;6154132;28;20043;-94
2023/12/30 18:00:35;;;;;;;9.38;6.28;;;;;;;;;;6158789;28;20049;-93
2023/12/30 18:03:39;;;;;;;5.50;5.30;;;;;;;;;;6152365;28;20162;-95
2023/12/30 18:06:41;;;;;;;5.38;5.18;;;;;;;;;;6150532;28;20047;-95
2023/12/30 18:09:43;;;;;;;5.60;5.40;;;;;;;;;;6157116;28;20560;-94
2023/12/30 18:12:50;;;;;;;4.97;4.88;;;;;;;;;;6150637;28;20082;-95
2023/12/30 18:15:51;;;;;;;6.50;4.50;;;;;;;;;;6148426;28;20040;-95
2023/12/30 18:18:54;;;;;;;5.03;4.82;;;;;;;;;;6150887;28;20043;-94